EastWest Aircraft Sales has several offices across the USA. See map for information on the nearest airstrips.

Naples Municipal Airport

Available data for KAPF from the past 2 hours
NAPLES MUNICIPAL, FL
Metar
KAPF 051453Z 03010KT 10SM CLR 09/M04 A3034 RMK AO2 SLP273 T00891044 51024

14:53 UTC

Wind: 30° 10kt

Visibility: 10 SM

Sky:

Temp: 9 deg C / 48.2 deg F

Dewpoint: -4 deg C / 24.8 deg F

Pressure: 30.34 inHg

TAF
KAPF 051459Z 0515/0612 03009KT P6SM SKC FM052000 36007KT P6SM SKC FM060000 03004KT P6SM SKC

Hillsboro Airport

Available data for KHIO from the past 2 hours
HILLSBORO/PORTLD, OR
Metar
KHIO 051453Z 35004KT 5SM -RA BR FEW001 BKN075 OVC095 05/04 A2998 RMK AO2 RAB15 SLP154 P0001 60006 T00500039 56006

14:53 UTC

Wind: 350° 4kt

Visibility: 5 SM

Sky: FEW 100 ft

Temp: 5 deg C / 41 deg F

Dewpoint: 4 deg C / 39.2 deg F

Pressure: 29.98 inHg

TAF
KHIO 051315Z 0513/0612 VRB02KT 4SM -RA SCT007 BKN060 OVC090 TEMPO 0513/0517 3SM -RA BKN007 OVC060 FM052000 15004KT P6SM -RA SCT025 OVC040 FM060200 18013KT 5SM -RA BKN020 OVC040 FM060700 20006KT P6SM -SHRA BKN020 BKN045